createdAt,value
2018-12-24T00:02:20.605Z,4.27
2018-12-24T00:07:25.728Z,4.10
2018-12-24T00:12:30.835Z,4.00
2018-12-24T00:17:35.796Z,7.60
2018-12-24T00:22:40.817Z,8.37
2018-12-24T00:27:46.058Z,6.27
2018-12-24T00:32:51.087Z,8.30
2018-12-24T00:37:56.064Z,10.67
2018-12-24T00:43:01.268Z,9.83
2018-12-24T00:48:06.275Z,7.87
2018-12-24T00:53:11.227Z,9.13
2018-12-24T00:58:16.198Z,8.50
2018-12-24T01:03:21.118Z,6.50
2018-12-24T01:08:26.074Z,7.27
2018-12-24T01:13:31.018Z,8.27
2018-12-24T01:18:36.011Z,8.47
2018-12-24T01:23:41.155Z,9.07
2018-12-24T01:28:46.176Z,9.50
2018-12-24T01:33:51.207Z,9.90
2018-12-24T01:38:56.432Z,10.90
2018-12-24T01:44:01.446Z,15.97
2018-12-24T01:49:06.450Z,16.77
2018-12-24T01:54:11.470Z,9.77
2018-12-24T01:59:16.945Z,9.23
2018-12-24T02:04:24.594Z,8.43
2018-12-24T02:09:29.494Z,7.63
2018-12-24T02:14:34.435Z,8.23
2018-12-24T02:19:40.365Z,7.03
2018-12-24T02:24:45.237Z,6.53
2018-12-24T02:29:50.304Z,7.57
2018-12-24T02:34:55.257Z,7.03
2018-12-24T02:40:00.515Z,5.63
2018-12-24T02:45:05.663Z,11.00
2018-12-24T02:50:10.636Z,7.00
2018-12-24T02:55:15.562Z,8.03
2018-12-24T03:00:20.711Z,8.33
2018-12-24T03:05:25.925Z,9.20
2018-12-24T03:10:30.825Z,6.17
2018-12-24T03:15:35.913Z,6.50
2018-12-24T03:20:41.039Z,6.03
2018-12-24T03:25:46.284Z,6.73
2018-12-24T03:30:51.299Z,4.63
2018-12-24T03:35:56.366Z,8.43
2018-12-24T03:41:01.531Z,5.40
2018-12-24T03:46:06.522Z,7.60
2018-12-24T03:51:11.916Z,6.03
2018-12-24T03:56:16.831Z,4.40
2018-12-24T04:01:21.887Z,4.80
2018-12-24T04:06:26.915Z,4.27
2018-12-24T04:11:32.020Z,4.37
2018-12-24T04:16:36.970Z,4.53
2018-12-24T04:21:42.052Z,4.33
2018-12-24T04:26:46.932Z,4.00
2018-12-24T04:31:51.997Z,4.47
2018-12-24T04:36:57.303Z,3.77
2018-12-24T04:42:02.211Z,3.60
2018-12-24T04:47:07.167Z,2.77
2018-12-24T04:52:12.183Z,5.13
2018-12-24T04:57:20.456Z,3.57
2018-12-24T05:02:25.639Z,4.70
2018-12-24T05:07:30.644Z,3.40
2018-12-24T05:12:35.664Z,3.83
2018-12-24T05:17:40.647Z,6.67
2018-12-24T05:22:45.794Z,5.37
2018-12-24T05:27:50.884Z,8.90
2018-12-24T05:32:55.872Z,5.70
2018-12-24T05:38:00.762Z,6.10
2018-12-24T05:43:05.699Z,7.23
2018-12-24T05:48:10.952Z,5.07
2018-12-24T05:53:15.914Z,7.73
2018-12-24T05:58:20.986Z,7.33
2018-12-24T06:03:25.952Z,5.00
2018-12-24T06:08:30.862Z,7.37
2018-12-24T06:13:36.048Z,5.43
2018-12-24T06:18:41.043Z,5.07
2018-12-24T06:23:45.936Z,8.63
2018-12-24T06:28:50.984Z,5.33
2018-12-24T06:33:55.982Z,6.87
2018-12-24T06:39:01.056Z,5.73
2018-12-24T06:44:06.894Z,5.00
2018-12-24T06:49:12.615Z,5.37
2018-12-24T06:54:17.843Z,5.63
2018-12-24T06:59:22.738Z,10.03
2018-12-24T07:04:28.034Z,8.50
2018-12-24T07:09:33.160Z,8.67
2018-12-24T07:14:38.076Z,6.53
2018-12-24T07:19:43.236Z,4.47
2018-12-24T07:24:48.311Z,5.73
2018-12-24T07:29:53.484Z,6.97
2018-12-24T07:34:58.423Z,6.67
2018-12-24T07:40:03.658Z,2.93
2018-12-24T07:45:08.711Z,5.53
2018-12-24T07:50:13.892Z,4.17
2018-12-24T07:55:18.842Z,3.73
2018-12-24T08:00:24.069Z,3.83
2018-12-24T08:05:29.034Z,2.37
2018-12-24T08:10:44.808Z,3.40
2018-12-24T08:15:49.795Z,3.63
2018-12-24T08:20:54.710Z,4.00
2018-12-24T08:25:59.656Z,3.60
2018-12-24T08:31:04.819Z,6.60
2018-12-24T08:36:09.900Z,3.43
2018-12-24T08:41:15.042Z,3.97
2018-12-24T08:46:20.233Z,3.37
2018-12-24T08:51:25.390Z,5.70
2018-12-24T08:56:30.387Z,5.80
2018-12-24T09:01:35.405Z,4.77
2018-12-24T09:06:40.424Z,4.73
2018-12-24T09:11:46.481Z,5.83
2018-12-24T09:16:51.611Z,4.43
2018-12-24T09:21:56.514Z,5.07
2018-12-24T09:27:01.770Z,4.13
2018-12-24T09:32:06.915Z,3.73
2018-12-24T09:37:11.940Z,2.40
2018-12-24T09:42:16.822Z,4.70
2018-12-24T09:47:21.801Z,3.33
2018-12-24T09:52:26.731Z,2.53
2018-12-24T09:57:31.735Z,1.97
2018-12-24T10:02:43.312Z,4.60
2018-12-24T10:07:48.515Z,3.67
2018-12-24T10:12:53.604Z,4.23
2018-12-24T10:17:59.090Z,5.13
2018-12-24T10:23:04.187Z,2.40
2018-12-24T10:28:09.064Z,3.73
2018-12-24T10:33:14.115Z,2.97
2018-12-24T10:38:19.563Z,2.77
2018-12-24T10:44:02.869Z,1.93
2018-12-24T10:49:07.706Z,2.93
2018-12-24T10:54:12.195Z,1.80
2018-12-24T10:59:16.862Z,3.33
2018-12-24T11:04:21.507Z,2.70
2018-12-24T11:09:26.418Z,1.67
2018-12-24T11:14:30.866Z,2.80
2018-12-24T11:19:35.379Z,2.60
2018-12-24T11:24:39.889Z,2.83
2018-12-24T11:29:44.484Z,2.57
2018-12-24T11:34:48.913Z,3.83
2018-12-24T11:39:53.440Z,1.77
2018-12-24T11:44:58.354Z,2.83
2018-12-24T11:50:02.938Z,1.80
2018-12-24T11:55:09.529Z,4.63
2018-12-24T12:00:14.106Z,2.33
2018-12-24T12:05:18.799Z,1.67
2018-12-24T12:10:23.376Z,2.80
2018-12-24T12:15:27.958Z,2.70
2018-12-24T12:20:32.481Z,2.27
2018-12-24T12:25:37.010Z,5.10
2018-12-24T12:30:41.759Z,3.50
2018-12-24T12:35:46.426Z,3.17
2018-12-24T12:40:51.252Z,1.87
2018-12-24T12:45:55.794Z,1.83
2018-12-24T12:51:00.564Z,2.73
2018-12-24T12:56:05.248Z,2.47
2018-12-24T13:01:09.749Z,2.83
2018-12-24T13:06:14.398Z,3.80
2018-12-24T13:11:18.979Z,2.27
2018-12-24T13:16:23.523Z,2.17
2018-12-24T13:21:28.039Z,2.17
2018-12-24T13:26:32.544Z,2.57
2018-12-24T13:31:37.146Z,4.23
2018-12-24T13:36:41.616Z,6.27
2018-12-24T13:41:46.313Z,5.93
2018-12-24T13:46:51.010Z,5.37
2018-12-24T13:51:55.517Z,5.40
2018-12-24T13:56:59.957Z,3.97
2018-12-24T14:02:04.395Z,3.97
2018-12-24T14:07:08.904Z,2.63
2018-12-24T14:12:13.480Z,2.37
2018-12-24T14:17:18.015Z,3.00
2018-12-24T14:22:22.815Z,2.33
2018-12-24T14:27:27.326Z,3.90
2018-12-24T14:32:31.758Z,2.80
2018-12-24T14:37:36.383Z,2.03
2018-12-24T14:42:40.896Z,2.13
2018-12-24T14:47:45.395Z,3.77
2018-12-24T14:52:50.091Z,2.77
2018-12-24T14:57:54.582Z,2.43
2018-12-24T15:02:59.270Z,3.30
2018-12-24T15:08:03.732Z,2.30
2018-12-24T15:13:08.214Z,2.80
2018-12-24T15:18:12.831Z,2.87
2018-12-24T15:23:18.686Z,3.00
2018-12-24T15:28:23.365Z,2.57
2018-12-24T15:33:27.926Z,4.93
2018-12-24T15:38:32.567Z,2.87
2018-12-24T15:43:37.214Z,2.90
2018-12-24T15:48:41.714Z,6.60
2018-12-24T15:53:46.162Z,5.13
2018-12-24T15:58:51.886Z,4.50
2018-12-24T16:03:56.393Z,5.10
2018-12-24T16:09:00.926Z,3.03
2018-12-24T16:14:05.629Z,4.60
2018-12-24T16:19:10.195Z,3.23
2018-12-24T16:24:14.835Z,4.70
2018-12-24T16:29:19.609Z,4.63
2018-12-24T16:34:24.162Z,7.93
2018-12-24T16:39:28.979Z,3.33
2018-12-24T16:44:33.578Z,5.33
2018-12-24T16:49:38.090Z,3.80
2018-12-24T16:54:42.835Z,4.47
2018-12-24T16:59:47.474Z,5.33
2018-12-24T17:04:51.994Z,3.73
2018-12-24T17:09:56.441Z,6.00
2018-12-24T17:15:00.899Z,7.00
2018-12-24T17:20:06.092Z,7.83
2018-12-24T17:25:10.641Z,5.93
2018-12-24T17:30:15.168Z,6.10
2018-12-24T17:35:19.837Z,6.23
2018-12-24T17:40:24.480Z,5.17
2018-12-24T17:45:29.021Z,4.80
2018-12-24T17:50:33.822Z,7.47
2018-12-24T17:55:38.378Z,7.80
2018-12-24T18:00:43.156Z,5.87
2018-12-24T18:05:47.708Z,5.33
2018-12-24T18:10:52.370Z,8.30
2018-12-24T18:15:56.890Z,10.17
2018-12-24T18:21:01.365Z,5.43
2018-12-24T18:26:06.096Z,6.03
2018-12-24T18:31:10.582Z,11.07
2018-12-24T18:36:15.244Z,5.57
2018-12-24T18:41:19.844Z,5.70
2018-12-24T18:46:24.438Z,6.77
2018-12-24T18:51:28.997Z,5.87
2018-12-24T18:56:33.715Z,5.37
2018-12-24T19:01:38.531Z,6.93
2018-12-24T19:06:43.283Z,6.90
2018-12-24T19:11:48.772Z,9.20
2018-12-24T19:16:53.676Z,6.53
2018-12-24T19:21:58.241Z,7.40
2018-12-24T19:27:03.065Z,4.87
2018-12-24T19:32:07.627Z,6.93
2018-12-24T19:37:12.339Z,5.70
2018-12-24T19:42:17.079Z,5.83
2018-12-24T19:47:21.588Z,10.30
2018-12-24T19:52:26.491Z,6.33
2018-12-24T19:57:31.163Z,10.00
2018-12-24T20:02:35.870Z,10.80
2018-12-24T20:07:40.486Z,9.37
2018-12-24T20:12:45.313Z,8.37
2018-12-24T20:17:58.085Z,7.13
2018-12-24T20:22:56.573Z,11.97
2018-12-24T20:28:01.107Z,8.23
2018-12-24T20:33:05.811Z,8.73
2018-12-24T20:38:10.553Z,8.10
2018-12-24T20:43:15.532Z,8.50
2018-12-24T20:48:20.275Z,7.47
2018-12-24T20:53:24.796Z,10.60
2018-12-24T20:58:29.468Z,8.33
2018-12-24T21:03:34.226Z,11.80
2018-12-24T21:08:39.219Z,11.20
2018-12-24T21:13:44.040Z,12.63
2018-12-24T21:18:48.682Z,16.07
2018-12-24T21:23:53.643Z,12.83
2018-12-24T21:28:58.845Z,11.43
2018-12-24T21:34:03.540Z,13.30
2018-12-24T21:39:08.054Z,13.93
2018-12-24T21:44:12.606Z,9.57
2018-12-24T21:49:17.137Z,9.93
2018-12-24T21:54:21.622Z,12.73
2018-12-24T21:59:26.317Z,12.00
2018-12-24T22:04:30.955Z,10.77
2018-12-24T22:09:35.583Z,10.70
2018-12-24T22:14:40.479Z,14.30
2018-12-24T22:19:44.938Z,12.60
2018-12-24T22:24:49.510Z,10.10
2018-12-24T22:29:54.098Z,12.27
2018-12-24T22:34:58.580Z,8.70
2018-12-24T22:40:03.206Z,10.33
2018-12-24T22:45:07.814Z,9.33
2018-12-24T22:50:12.625Z,10.83
2018-12-24T22:55:17.154Z,11.80
2018-12-24T23:00:41.278Z,10.53
2018-12-24T23:05:46.024Z,11.00
2018-12-24T23:10:50.877Z,10.63
2018-12-24T23:15:55.528Z,13.03
2018-12-24T23:21:00.380Z,14.07
2018-12-24T23:26:04.954Z,12.47
2018-12-24T23:31:09.523Z,11.80
2018-12-24T23:36:14.233Z,12.10
2018-12-24T23:41:18.963Z,12.70
2018-12-24T23:46:23.468Z,13.33
2018-12-24T23:51:28.184Z,14.63
2018-12-24T23:56:32.739Z,13.47
